createdAt,value
2023-01-28T00:01:44.073Z,8.33
2023-01-28T00:04:13.353Z,6.03
2023-01-28T00:06:42.345Z,9.53
2023-01-28T00:09:11.589Z,12.50
2023-01-28T00:11:40.306Z,5.30
2023-01-28T00:14:09.013Z,4.90
2023-01-28T00:16:39.082Z,9.53
2023-01-28T00:19:07.864Z,4.30
2023-01-28T00:21:36.533Z,9.60
2023-01-28T00:24:07.202Z,7.67
2023-01-28T00:26:35.864Z,4.83
2023-01-28T00:29:05.316Z,4.87
2023-01-28T00:31:34.566Z,5.53
2023-01-28T00:34:04.938Z,5.27
2023-01-28T00:36:34.092Z,4.47
2023-01-28T00:39:03.124Z,5.97
2023-01-28T00:41:31.982Z,5.17
2023-01-28T00:44:00.948Z,7.47
2023-01-28T00:46:31.084Z,6.53
2023-01-28T00:48:59.700Z,4.00
2023-01-28T00:51:29.768Z,5.00
2023-01-28T00:53:58.418Z,8.00
2023-01-28T00:56:29.152Z,3.80
2023-01-28T00:58:57.951Z,6.97
2023-01-28T01:01:28.335Z,3.97
2023-01-28T01:04:03.166Z,4.10
2023-01-28T01:06:36.779Z,4.13
2023-01-28T01:09:08.624Z,4.20
2023-01-28T01:11:37.721Z,6.03
2023-01-28T01:14:07.239Z,5.67
2023-01-28T01:16:36.631Z,4.70
2023-01-28T01:19:05.500Z,9.17
2023-01-28T01:21:36.477Z,5.00
2023-01-28T01:24:06.140Z,3.80
2023-01-28T01:26:34.770Z,5.37
2023-01-28T01:29:03.406Z,3.93
2023-01-28T01:31:32.052Z,5.93
2023-01-28T01:34:02.315Z,5.90
2023-01-28T01:36:32.537Z,4.73
2023-01-28T01:39:02.632Z,3.33
2023-01-28T01:41:33.659Z,3.13
2023-01-28T01:44:03.783Z,3.70
2023-01-28T01:46:37.941Z,2.93
2023-01-28T01:49:16.223Z,3.70
2023-01-28T01:51:47.976Z,5.67
2023-01-28T01:54:19.338Z,5.60
2023-01-28T01:56:52.218Z,3.40
2023-01-28T01:59:26.201Z,8.50
2023-01-28T02:01:56.274Z,3.40
2023-01-28T02:04:28.696Z,6.23
2023-01-28T02:06:58.368Z,3.57
2023-01-28T02:09:30.710Z,4.53
2023-01-28T02:12:05.933Z,3.93
2023-01-28T02:14:38.415Z,4.13
2023-01-28T02:17:07.243Z,4.03
2023-01-28T02:19:40.008Z,4.93
2023-01-28T02:22:29.907Z,4.90
2023-01-28T02:25:20.797Z,3.83
2023-01-28T02:28:11.396Z,4.20
2023-01-28T02:30:44.175Z,3.80
2023-01-28T02:33:19.979Z,5.30
2023-01-28T02:35:53.496Z,5.00
2023-01-28T02:38:28.077Z,3.60
2023-01-28T02:41:05.967Z,4.87
2023-01-28T02:43:39.710Z,3.50
2023-01-28T02:46:38.490Z,3.87
2023-01-28T02:49:10.623Z,4.70
2023-01-28T02:51:54.363Z,3.47
2023-01-28T02:54:36.731Z,3.43
2023-01-28T02:57:18.904Z,3.67
2023-01-28T02:59:57.825Z,4.73
2023-01-28T03:02:33.862Z,5.77
2023-01-28T03:05:08.989Z,3.90
2023-01-28T03:07:40.037Z,4.93
2023-01-28T03:10:14.662Z,3.43
2023-01-28T03:13:04.944Z,3.93
2023-01-28T03:16:00.035Z,3.80
2023-01-28T03:18:49.716Z,3.70
2023-01-28T03:21:40.952Z,3.50
2023-01-28T03:24:31.520Z,4.10
2023-01-28T03:27:27.827Z,7.40
2023-01-28T03:30:26.039Z,4.53
2023-01-28T03:33:15.416Z,3.30
2023-01-28T03:36:02.070Z,3.73
2023-01-28T03:38:42.150Z,3.77
2023-01-28T03:41:22.972Z,5.70
2023-01-28T03:43:53.655Z,7.10
2023-01-28T03:46:22.417Z,3.57
2023-01-28T03:48:52.578Z,3.73
2023-01-28T03:51:21.437Z,4.73
2023-01-28T03:53:50.171Z,3.40
2023-01-28T03:56:20.027Z,4.37
2023-01-28T03:58:53.121Z,5.07
2023-01-28T04:01:22.918Z,4.60
2023-01-28T04:03:53.173Z,5.03
2023-01-28T04:06:31.177Z,4.83
2023-01-28T04:09:14.844Z,3.53
2023-01-28T04:11:52.969Z,3.90
2023-01-28T04:14:37.060Z,3.80
2023-01-28T04:17:10.832Z,4.53
2023-01-28T04:19:42.057Z,3.40
2023-01-28T04:22:12.846Z,5.07
2023-01-28T04:24:43.390Z,6.77
2023-01-28T04:27:12.898Z,3.27
2023-01-28T04:29:41.553Z,4.33
2023-01-28T04:32:32.655Z,4.23
2023-01-28T04:35:11.337Z,4.77
2023-01-28T04:38:06.134Z,5.60
2023-01-28T04:40:53.099Z,3.77
2023-01-28T04:43:28.597Z,6.83
2023-01-28T04:46:16.117Z,3.87
2023-01-28T04:48:55.276Z,6.73
2023-01-28T04:51:54.448Z,4.37
2023-01-28T04:54:23.143Z,3.50
2023-01-28T04:56:52.116Z,4.07
2023-01-28T04:59:21.195Z,3.37
2023-01-28T05:01:50.233Z,4.20
2023-01-28T05:04:21.538Z,4.70
2023-01-28T05:06:50.338Z,4.27
2023-01-28T05:09:25.591Z,5.13
2023-01-28T05:11:55.150Z,6.07
2023-01-28T05:14:24.808Z,11.70
2023-01-28T05:17:01.291Z,3.37
2023-01-28T05:19:30.084Z,3.67
2023-01-28T05:21:59.391Z,3.17
2023-01-28T05:24:45.452Z,3.73
2023-01-28T05:27:14.135Z,4.00
2023-01-28T05:29:43.624Z,4.23
2023-01-28T05:32:13.225Z,5.37
2023-01-28T05:34:41.893Z,6.37
2023-01-28T05:37:14.380Z,4.50
2023-01-28T05:39:44.418Z,11.90
2023-01-28T05:42:13.145Z,9.23
2023-01-28T05:44:46.826Z,5.13
2023-01-28T05:47:25.285Z,5.33
2023-01-28T05:50:01.653Z,4.13
2023-01-28T05:52:33.282Z,5.93
2023-01-28T05:55:04.318Z,7.80
2023-01-28T05:57:33.776Z,8.70
2023-01-28T06:00:05.772Z,5.67
2023-01-28T06:02:43.486Z,5.67
2023-01-28T06:05:15.593Z,3.90
2023-01-28T06:07:46.750Z,4.30
2023-01-28T06:10:18.192Z,5.23
2023-01-28T06:12:47.532Z,5.07
2023-01-28T06:15:35.018Z,4.03
2023-01-28T06:18:16.616Z,6.20
2023-01-28T06:20:45.528Z,4.20
2023-01-28T06:23:14.309Z,4.63
2023-01-28T06:25:44.666Z,6.57
2023-01-28T06:28:16.424Z,8.93
2023-01-28T06:30:45.997Z,5.43
2023-01-28T06:33:14.701Z,8.60
2023-01-28T06:35:44.946Z,11.53
2023-01-28T06:38:14.149Z,5.03
2023-01-28T06:40:44.117Z,9.83
2023-01-28T06:43:12.730Z,12.40
2023-01-28T06:45:41.423Z,6.30
2023-01-28T06:48:10.227Z,6.07
2023-01-28T06:50:39.076Z,6.37
2023-01-28T06:53:07.677Z,9.67
2023-01-28T06:55:36.395Z,19.67
2023-01-28T06:58:06.411Z,7.80
2023-01-28T07:00:35.084Z,8.17
2023-01-28T07:03:03.767Z,7.70
2023-01-28T07:05:32.468Z,10.07
2023-01-28T07:08:02.351Z,7.67
2023-01-28T07:10:31.220Z,7.17
2023-01-28T07:12:59.791Z,10.23
2023-01-28T07:15:29.967Z,11.47
2023-01-28T07:17:59.578Z,20.30
2023-01-28T07:20:28.604Z,13.23
2023-01-28T07:22:57.183Z,9.40
2023-01-28T07:25:25.837Z,9.07
2023-01-28T07:27:55.195Z,14.07
2023-01-28T07:30:24.531Z,16.20
2023-01-28T07:32:58.783Z,6.17
2023-01-28T07:35:28.599Z,13.00
2023-01-28T07:37:58.667Z,9.23
2023-01-28T07:40:28.798Z,9.70
2023-01-28T07:42:57.635Z,11.17
2023-01-28T07:45:30.768Z,8.40
2023-01-28T07:48:02.185Z,8.70
2023-01-28T07:50:32.894Z,7.27
2023-01-28T07:53:03.927Z,8.43
2023-01-28T07:55:35.910Z,10.37
2023-01-28T07:58:06.385Z,13.17
2023-01-28T08:00:37.145Z,9.23
2023-01-28T08:03:16.000Z,11.70
2023-01-28T08:05:47.245Z,11.60
2023-01-28T08:08:16.586Z,8.17
2023-01-28T08:10:45.366Z,10.73
2023-01-28T08:13:15.115Z,9.23
2023-01-28T08:15:44.078Z,12.60
2023-01-28T08:18:17.021Z,10.33
2023-01-28T08:20:47.544Z,10.47
2023-01-28T08:23:17.855Z,12.57
2023-01-28T08:25:47.427Z,15.57
2023-01-28T08:28:16.911Z,13.67
2023-01-28T08:30:46.007Z,10.53
2023-01-28T08:33:17.165Z,15.63
2023-01-28T08:35:46.122Z,8.30
2023-01-28T08:38:16.400Z,10.17
2023-01-28T08:40:45.076Z,9.87
2023-01-28T08:43:13.926Z,13.87
2023-01-28T08:45:42.772Z,9.87
2023-01-28T08:48:16.995Z,13.17
2023-01-28T08:50:46.203Z,22.77
2023-01-28T08:53:16.829Z,18.83
2023-01-28T08:55:45.777Z,19.20
2023-01-28T08:58:15.980Z,15.03
2023-01-28T09:00:46.454Z,19.40
2023-01-28T09:03:16.661Z,21.47
2023-01-28T09:05:45.383Z,17.50
2023-01-28T09:08:15.983Z,20.17
2023-01-28T09:10:45.760Z,17.63
2023-01-28T09:13:16.580Z,18.27
2023-01-28T09:15:45.559Z,18.03
2023-01-28T09:18:15.758Z,16.30
2023-01-28T09:20:44.433Z,14.67
2023-01-28T09:23:13.547Z,14.30
2023-01-28T09:25:42.529Z,19.97
2023-01-28T09:28:11.223Z,15.53
2023-01-28T09:30:40.032Z,19.50
2023-01-28T09:33:09.593Z,16.60
2023-01-28T09:35:39.733Z,17.07
2023-01-28T09:38:08.350Z,19.13
2023-01-28T09:40:42.188Z,19.90
2023-01-28T09:43:25.992Z,17.53
2023-01-28T09:45:57.146Z,17.93
2023-01-28T09:48:32.986Z,19.80
2023-01-28T09:51:03.315Z,19.87
2023-01-28T09:53:34.463Z,18.93
2023-01-28T09:56:05.346Z,18.90
2023-01-28T09:58:34.149Z,25.53
2023-01-28T10:01:08.237Z,22.10
2023-01-28T10:03:51.889Z,21.63
2023-01-28T10:06:29.612Z,15.53
2023-01-28T10:09:20.743Z,18.33
2023-01-28T10:12:03.701Z,17.80
2023-01-28T10:14:46.044Z,20.23
2023-01-28T10:17:19.257Z,18.97
2023-01-28T10:19:51.684Z,21.93
2023-01-28T10:22:25.870Z,20.27
2023-01-28T10:25:01.983Z,19.07
2023-01-28T10:27:32.782Z,20.23
2023-01-28T10:30:16.702Z,11.73
2023-01-28T10:32:52.771Z,20.33
2023-01-28T10:35:21.753Z,12.60
2023-01-28T10:38:01.940Z,8.20
2023-01-28T10:40:30.858Z,16.20
2023-01-28T10:42:59.442Z,10.53
2023-01-28T10:45:32.073Z,13.47
2023-01-28T10:48:05.148Z,15.97
2023-01-28T10:50:35.542Z,10.73
2023-01-28T10:53:07.544Z,10.73
2023-01-28T10:55:51.833Z,7.60
2023-01-28T10:58:23.729Z,8.53
2023-01-28T11:00:55.945Z,10.40
2023-01-28T11:03:28.001Z,10.93
2023-01-28T11:05:58.069Z,8.03
2023-01-28T11:08:30.251Z,7.73
2023-01-28T11:10:59.550Z,8.80
2023-01-28T11:13:29.838Z,6.63
2023-01-28T11:16:03.312Z,5.33
2023-01-28T11:18:34.547Z,44.47
2023-01-28T11:21:06.142Z,12.70
2023-01-28T11:23:41.284Z,14.47
2023-01-28T11:26:17.357Z,9.43
2023-01-28T11:28:46.954Z,9.50
2023-01-28T11:31:17.760Z,11.43
2023-01-28T11:33:52.091Z,10.27
2023-01-28T11:36:23.306Z,9.30
2023-01-28T11:38:55.560Z,11.10
2023-01-28T11:41:31.079Z,12.80
2023-01-28T11:44:02.897Z,25.77
2023-01-28T11:46:56.783Z,13.00
2023-01-28T11:49:38.281Z,11.20
2023-01-28T11:52:15.983Z,9.67
2023-01-28T11:54:57.146Z,14.10
2023-01-28T11:57:27.741Z,10.57
2023-01-28T12:00:19.369Z,9.90
2023-01-28T12:02:54.825Z,7.50
2023-01-28T12:05:43.384Z,9.23
2023-01-28T12:08:23.396Z,8.57
2023-01-28T12:11:09.063Z,10.20
2023-01-28T12:14:00.701Z,7.93
2023-01-28T12:16:54.437Z,7.30
2023-01-28T12:19:42.246Z,10.00
2023-01-28T12:22:54.003Z,10.23
2023-01-28T12:25:35.286Z,8.27
2023-01-28T12:28:17.379Z,7.00
2023-01-28T12:31:05.753Z,15.53
2023-01-28T12:34:01.640Z,8.90
2023-01-28T12:36:44.360Z,10.20
2023-01-28T12:39:23.329Z,8.10
2023-01-28T12:41:57.335Z,9.50
2023-01-28T12:44:34.497Z,12.67
2023-01-28T12:47:07.528Z,9.30
2023-01-28T12:49:40.872Z,10.90
2023-01-28T12:52:16.375Z,10.00
2023-01-28T12:54:55.088Z,9.53
2023-01-28T12:57:27.772Z,15.70
2023-01-28T13:00:04.243Z,13.60
2023-01-28T13:02:37.528Z,15.20
2023-01-28T13:05:12.330Z,10.03
2023-01-28T13:07:49.742Z,8.87
2023-01-28T13:10:25.790Z,8.30
2023-01-28T13:12:55.254Z,8.33
2023-01-28T13:15:26.615Z,9.60
2023-01-28T13:17:57.675Z,10.43
2023-01-28T13:20:38.670Z,9.83
2023-01-28T13:23:23.074Z,9.20
2023-01-28T13:25:53.537Z,11.30
2023-01-28T13:28:30.990Z,9.17
2023-01-28T13:31:06.781Z,10.37
2023-01-28T13:33:37.647Z,9.47
2023-01-28T13:36:21.081Z,11.53
2023-01-28T13:39:01.187Z,14.40
2023-01-28T13:41:40.441Z,12.57
2023-01-28T13:44:20.498Z,9.93
2023-01-28T13:46:50.840Z,7.77
2023-01-28T13:49:27.835Z,9.67
2023-01-28T13:52:08.987Z,9.97
2023-01-28T13:54:39.820Z,10.87
2023-01-28T13:58:09.087Z,11.73
2023-01-28T14:00:46.601Z,9.13
2023-01-28T14:03:41.751Z,11.10
2023-01-28T14:06:52.793Z,8.93
2023-01-28T14:09:38.287Z,11.87
2023-01-28T14:12:50.908Z,10.57
2023-01-28T14:15:40.585Z,11.07
2023-01-28T14:18:20.612Z,8.50
2023-01-28T14:20:51.537Z,10.10
2023-01-28T14:23:22.321Z,8.37
2023-01-28T14:26:05.284Z,10.13
2023-01-28T14:28:45.727Z,9.60
2023-01-28T14:31:19.800Z,10.20
2023-01-28T14:33:49.558Z,8.97
2023-01-28T14:36:20.006Z,9.83
2023-01-28T14:38:49.151Z,10.43
2023-01-28T14:41:25.009Z,14.50
2023-01-28T14:43:55.984Z,11.47
2023-01-28T14:46:34.383Z,15.00
2023-01-28T14:49:25.580Z,15.10
2023-01-28T14:52:20.572Z,12.23
2023-01-28T14:55:01.718Z,11.73
2023-01-28T14:57:49.943Z,18.30
2023-01-28T15:00:22.821Z,24.70
2023-01-28T15:02:51.923Z,14.47
2023-01-28T15:05:23.741Z,18.30
2023-01-28T15:07:54.397Z,16.97
2023-01-28T15:10:29.374Z,11.43
2023-01-28T15:13:00.969Z,10.37
2023-01-28T15:15:33.095Z,13.53
2023-01-28T15:18:05.872Z,8.40
2023-01-28T15:20:34.882Z,11.97
2023-01-28T15:23:08.913Z,11.13
2023-01-28T15:25:38.941Z,11.83
2023-01-28T15:28:07.663Z,11.63
2023-01-28T15:30:37.193Z,16.10
2023-01-28T15:33:08.016Z,9.47
2023-01-28T15:35:38.389Z,9.00
2023-01-28T15:38:10.278Z,7.87
2023-01-28T15:40:44.365Z,13.70
2023-01-28T15:43:21.313Z,8.07
2023-01-28T15:45:51.637Z,10.67
2023-01-28T15:48:20.527Z,10.13
2023-01-28T15:50:49.234Z,12.20
2023-01-28T15:53:19.364Z,12.70
2023-01-28T15:55:48.014Z,11.23
2023-01-28T15:58:20.189Z,10.37
2023-01-28T16:00:50.644Z,11.23
2023-01-28T16:03:22.114Z,13.20
2023-01-28T16:06:03.182Z,12.63
2023-01-28T16:08:39.716Z,16.17
2023-01-28T16:11:11.603Z,12.70
2023-01-28T16:13:44.913Z,13.70
2023-01-28T16:16:14.128Z,14.77
2023-01-28T16:18:47.565Z,18.20
2023-01-28T16:21:24.027Z,16.90
2023-01-28T16:24:01.826Z,16.63
2023-01-28T16:26:32.641Z,13.07
2023-01-28T16:29:12.957Z,23.77
2023-01-28T16:31:41.660Z,15.87
2023-01-28T16:34:11.969Z,19.07
2023-01-28T16:36:40.670Z,13.40
2023-01-28T16:39:10.817Z,20.03
2023-01-28T16:41:42.481Z,19.23
2023-01-28T16:44:14.266Z,11.53
2023-01-28T16:46:43.277Z,18.60
2023-01-28T16:49:12.355Z,16.23
2023-01-28T16:51:44.085Z,14.83
2023-01-28T16:54:17.394Z,15.97
2023-01-28T16:56:47.008Z,17.00
2023-01-28T16:59:16.527Z,20.27
2023-01-28T17:01:45.916Z,16.07
2023-01-28T17:04:14.810Z,16.60
2023-01-28T17:06:44.864Z,17.93
2023-01-28T17:09:15.889Z,15.03
2023-01-28T17:11:44.595Z,19.67
2023-01-28T17:14:13.241Z,15.50
2023-01-28T17:16:42.892Z,16.20
2023-01-28T17:19:11.551Z,13.07
2023-01-28T17:21:40.239Z,18.53
2023-01-28T17:24:09.720Z,19.30
2023-01-28T17:26:39.957Z,19.10
2023-01-28T17:29:09.395Z,19.80
2023-01-28T17:31:38.308Z,16.50
2023-01-28T17:34:08.268Z,21.77
2023-01-28T17:36:36.934Z,16.50
2023-01-28T17:39:07.606Z,19.43
2023-01-28T17:41:36.323Z,22.57
2023-01-28T17:44:07.024Z,20.27
2023-01-28T17:46:35.707Z,24.80
2023-01-28T17:49:04.785Z,34.83
2023-01-28T17:51:33.492Z,19.70
2023-01-28T17:54:02.104Z,23.93
2023-01-28T17:56:32.114Z,19.27
2023-01-28T17:59:03.943Z,19.67
2023-01-28T18:01:37.316Z,23.60
2023-01-28T18:04:06.385Z,25.67
2023-01-28T18:06:36.155Z,25.67
2023-01-28T18:09:07.262Z,33.47
2023-01-28T18:11:36.112Z,26.50
2023-01-28T18:14:04.721Z,24.50
2023-01-28T18:16:34.780Z,31.83
2023-01-28T18:19:03.413Z,26.13
2023-01-28T18:21:46.469Z,26.83
2023-01-28T18:24:20.651Z,34.60
2023-01-28T18:26:49.404Z,25.10
2023-01-28T18:29:20.887Z,31.10
2023-01-28T18:31:52.108Z,30.47
2023-01-28T18:34:20.961Z,36.80
2023-01-28T18:36:49.959Z,28.60
2023-01-28T18:39:19.141Z,26.90
2023-01-28T18:41:47.871Z,26.17
2023-01-28T18:44:17.424Z,24.73
2023-01-28T18:46:46.111Z,28.17
2023-01-28T18:49:16.427Z,25.70
2023-01-28T18:51:45.233Z,24.17
2023-01-28T18:54:16.163Z,24.50
2023-01-28T18:56:45.556Z,26.77
2023-01-28T18:59:15.670Z,27.57
2023-01-28T19:01:47.801Z,25.67
2023-01-28T19:04:19.270Z,25.57
2023-01-28T19:06:48.457Z,22.30
2023-01-28T19:09:18.643Z,24.07
2023-01-28T19:11:48.524Z,22.47
2023-01-28T19:14:17.335Z,24.27
2023-01-28T19:16:46.282Z,27.20
2023-01-28T19:19:14.903Z,31.17
2023-01-28T19:21:45.015Z,27.80
2023-01-28T19:24:15.195Z,26.80
2023-01-28T19:26:45.351Z,25.60
2023-01-28T19:29:16.335Z,27.83
2023-01-28T19:31:49.189Z,24.23
2023-01-28T19:34:18.073Z,21.83
2023-01-28T19:36:48.212Z,20.87
2023-01-28T19:39:17.343Z,20.60
2023-01-28T19:41:46.085Z,18.73
2023-01-28T19:44:14.724Z,25.43
2023-01-28T19:46:43.487Z,22.53
2023-01-28T19:49:13.204Z,26.60
2023-01-28T19:51:41.750Z,27.47
2023-01-28T19:54:11.809Z,27.00
2023-01-28T19:56:40.566Z,20.53
2023-01-28T19:59:09.190Z,27.20
2023-01-28T20:01:37.854Z,20.27
2023-01-28T20:04:06.491Z,30.60
2023-01-28T20:06:35.881Z,28.20
2023-01-28T20:09:07.838Z,19.67
2023-01-28T20:11:38.260Z,27.53
2023-01-28T20:14:07.077Z,25.60
2023-01-28T20:16:37.136Z,23.80
2023-01-28T20:19:08.216Z,21.53
2023-01-28T20:21:37.268Z,28.27
2023-01-28T20:24:06.716Z,26.20
2023-01-28T20:26:38.324Z,27.90
2023-01-28T20:29:09.606Z,27.33
2023-01-28T20:31:40.814Z,25.47
2023-01-28T20:34:13.768Z,22.40
2023-01-28T20:36:42.871Z,25.87
2023-01-28T20:39:12.069Z,21.60
2023-01-28T20:41:42.191Z,23.00
2023-01-28T20:44:10.807Z,18.17
2023-01-28T20:46:39.405Z,25.70
2023-01-28T20:49:08.297Z,23.47
2023-01-28T20:51:38.407Z,18.83
2023-01-28T20:54:07.081Z,16.63
2023-01-28T20:56:35.713Z,18.90
2023-01-28T20:59:07.629Z,27.40
2023-01-28T21:01:37.445Z,26.83
2023-01-28T21:04:08.506Z,17.33
2023-01-28T21:06:40.017Z,18.57
2023-01-28T21:09:09.210Z,21.60
2023-01-28T21:11:37.817Z,19.47
2023-01-28T21:14:07.824Z,20.07
2023-01-28T21:16:41.235Z,35.90
2023-01-28T21:19:11.031Z,16.80
2023-01-28T21:21:42.686Z,13.77
2023-01-28T21:24:12.637Z,18.20
2023-01-28T21:26:41.358Z,21.90
2023-01-28T21:29:11.556Z,13.70
2023-01-28T21:31:40.183Z,18.60
2023-01-28T21:34:09.300Z,12.27
2023-01-28T21:36:38.110Z,20.67
2023-01-28T21:39:06.900Z,20.60
2023-01-28T21:41:35.502Z,15.73
2023-01-28T21:44:04.128Z,13.90
2023-01-28T21:46:35.051Z,12.73
2023-01-28T21:49:05.510Z,13.93
2023-01-28T21:51:39.621Z,14.00
2023-01-28T21:54:11.501Z,9.90
2023-01-28T21:56:40.243Z,12.80
2023-01-28T21:59:26.128Z,12.07
2023-01-28T22:01:56.545Z,11.43
2023-01-28T22:04:26.013Z,11.27
2023-01-28T22:06:55.745Z,10.53
2023-01-28T22:09:24.912Z,13.50
2023-01-28T22:11:53.549Z,11.03
2023-01-28T22:14:22.557Z,10.97
2023-01-28T22:16:51.214Z,10.50
2023-01-28T22:19:21.403Z,10.83
2023-01-28T22:21:50.070Z,8.33
2023-01-28T22:24:20.221Z,6.70
2023-01-28T22:26:49.228Z,10.77
2023-01-28T22:29:19.193Z,8.80
2023-01-28T22:31:48.303Z,6.53
2023-01-28T22:34:17.812Z,8.40
2023-01-28T22:36:48.241Z,10.07
2023-01-28T22:39:18.100Z,11.47
2023-01-28T22:41:47.122Z,7.30
2023-01-28T22:44:16.261Z,14.50
2023-01-28T22:46:45.004Z,8.93
2023-01-28T22:49:15.150Z,9.70
2023-01-28T22:51:44.191Z,9.63
2023-01-28T22:54:15.194Z,10.60
2023-01-28T22:56:43.957Z,10.60
2023-01-28T22:59:13.084Z,8.80
2023-01-28T23:01:41.827Z,7.20
2023-01-28T23:04:10.494Z,8.00
2023-01-28T23:06:39.105Z,8.13
2023-01-28T23:09:07.757Z,11.53
2023-01-28T23:11:38.016Z,9.30
2023-01-28T23:14:24.100Z,13.73
2023-01-28T23:17:10.530Z,5.83
2023-01-28T23:19:56.400Z,8.57
2023-01-28T23:22:46.765Z,7.57
2023-01-28T23:25:16.039Z,5.70
2023-01-28T23:27:46.280Z,9.50
2023-01-28T23:30:16.011Z,7.53
2023-01-28T23:32:48.516Z,9.43
2023-01-28T23:35:19.227Z,10.23
2023-01-28T23:37:47.984Z,9.27
2023-01-28T23:40:17.354Z,8.00
2023-01-28T23:42:51.390Z,7.90
2023-01-28T23:45:20.605Z,8.83
2023-01-28T23:47:49.735Z,14.33
2023-01-28T23:50:19.323Z,7.87
2023-01-28T23:52:48.073Z,8.27
2023-01-28T23:55:17.172Z,8.27
2023-01-28T23:57:45.707Z,7.07
